Time;durP1;ratioP1;P1;durP2;ratioP2;P2;SDS_P1;SDS_P2;PMS_P1;PMS_P2;Temp;Humidity;BMP_temperature;BMP_pressure;BME280_temperature;BME280_humidity;BME280_pressure;Samples;Min_cycle;Max_cycle;Signal;HPM_P1;HPM_P2
2022/01/28 00:04:51;;;;;;;12.00;7.70;;;;;;;-3.65;96.92;98841.59;5033335;28;20512;-75
2022/01/28 00:07:17;;;;;;;9.68;6.18;;;;;;;-3.64;96.92;98842.44;5032229;28;20045;-75
2022/01/28 00:09:42;;;;;;;11.30;7.10;;;;;;;-3.63;96.72;98846.75;5031713;28;20033;-75
2022/01/28 00:12:09;;;;;;;10.32;6.32;;;;;;;-3.63;97.33;98838.72;5013588;28;20072;-74
2022/01/28 00:14:45;;;;;;;11.95;8.48;;;;;;;-3.64;96.65;98847.81;5030260;28;20037;-77
2022/01/28 00:38:45;;;;;;;8.32;5.65;;;;;;;-3.57;96.86;98842.31;5017317;28;20496;-72
2022/01/28 00:41:11;;;;;;;7.18;4.90;;;;;;;-3.58;97.19;98844.19;5032640;28;20033;-73
2022/01/28 00:43:37;;;;;;;11.32;5.45;;;;;;;-3.57;97.08;98836.97;5030650;28;20087;-72
2022/01/28 00:46:03;;;;;;;8.60;5.95;;;;;;;-3.57;97.02;98837.78;5033085;28;20049;-72
2022/01/28 00:48:28;;;;;;;8.63;4.72;;;;;;;-3.57;97.25;98836.97;5045232;28;20092;-72
2022/01/28 00:50:54;;;;;;;8.30;5.88;;;;;;;-3.56;97.10;98841.25;5032616;28;20567;-72
2022/01/28 00:53:20;;;;;;;9.30;5.15;;;;;;;-3.55;97.09;98838.34;5031174;28;20037;-72
2022/01/28 00:55:45;;;;;;;7.13;3.58;;;;;;;-3.55;97.47;98830.31;5031147;28;20138;-72
2022/01/28 00:58:11;;;;;;;7.80;4.55;;;;;;;-3.53;96.83;98832.75;5031336;28;20111;-72
2022/01/28 01:00:37;;;;;;;7.63;5.43;;;;;;;-3.53;97.05;98830.88;5031726;28;20114;-73
2022/01/28 01:03:02;;;;;;;7.15;4.68;;;;;;;-3.54;97.14;98834.63;5031779;28;20043;-72
2022/01/28 01:05:32;;;;;;;7.63;5.20;;;;;;;-3.53;96.79;98830.06;5017400;28;20037;-73
2022/01/28 01:07:58;;;;;;;6.82;4.78;;;;;;;-3.55;96.97;98824.94;5031194;28;20048;-72
2022/01/28 01:10:26;;;;;;;6.07;4.75;;;;;;;-3.54;96.65;98833.81;5052191;28;20448;-73
2022/01/28 01:12:52;;;;;;;6.18;4.97;;;;;;;-3.55;96.76;98813.41;5033449;28;20056;-73
2022/01/28 01:15:21;;;;;;;5.75;3.85;;;;;;;-3.53;96.80;98816.66;5033089;28;20049;-73
2022/01/28 01:22:51;;;;;;;6.03;3.20;;;;;;;-3.52;96.38;98813.75;5031040;28;20091;-72
2022/01/28 01:25:24;;;;;;;5.63;4.20;;;;;;;-3.50;96.97;98817.00;5012152;28;20034;-73
2022/01/28 01:27:54;;;;;;;6.95;4.13;;;;;;;-3.49;96.29;98823.19;5023989;28;20049;-72
2022/01/28 01:30:20;;;;;;;6.28;4.80;;;;;;;-3.48;97.01;98820.25;5042316;28;20534;-72
2022/01/28 01:32:45;;;;;;;5.60;3.60;;;;;;;-3.49;96.72;98810.59;5031631;28;20574;-72
2022/01/28 01:35:11;;;;;;;7.22;4.15;;;;;;;-3.46;96.53;98809.34;5031689;28;20075;-72
2022/01/28 01:37:36;;;;;;;6.55;3.63;;;;;;;-3.47;96.67;98815.72;5030856;28;20144;-72
2022/01/28 01:40:03;;;;;;;4.63;3.25;;;;;;;-3.48;96.97;98814.09;5030973;28;20052;-71
2022/01/28 01:42:52;;;;;;;5.47;3.72;;;;;;;-3.50;96.77;98822.38;5031288;28;20044;-71
2022/01/28 01:53:27;;;;;;;4.78;3.20;;;;;;;-3.50;96.83;98818.88;5030769;28;20451;-73
2022/01/28 01:55:54;;;;;;;5.03;3.63;;;;;;;-3.50;96.81;98816.19;5031369;28;20041;-72
2022/01/28 01:58:25;;;;;;;4.25;3.45;;;;;;;-3.50;96.33;98824.22;5029338;28;20452;-72
2022/01/28 02:00:51;;;;;;;5.32;3.60;;;;;;;-3.48;96.85;98831.00;5030956;28;20033;-72
2022/01/28 02:03:16;;;;;;;6.25;3.67;;;;;;;-3.49;96.56;98821.31;5031234;28;20033;-72
2022/01/28 02:05:42;;;;;;;4.47;3.53;;;;;;;-3.51;96.83;98820.75;5031006;28;20068;-73
2022/01/28 02:08:07;;;;;;;4.63;3.00;;;;;;;-3.52;96.72;98821.78;5031073;28;20040;-73
2022/01/28 02:10:34;;;;;;;4.22;2.33;;;;;;;-3.51;96.72;98823.41;5031261;28;20045;-73
2022/01/28 02:12:59;;;;;;;4.18;2.80;;;;;;;-3.51;96.92;98806.50;5029586;28;20049;-73
2022/01/28 02:15:25;;;;;;;3.63;2.25;;;;;;;-3.52;96.73;98813.75;5031207;28;20037;-73
2022/01/28 02:17:51;;;;;;;3.20;2.53;;;;;;;-3.53;96.63;98811.31;5030317;28;20041;-73
2022/01/28 02:20:26;;;;;;;5.50;3.38;;;;;;;-3.55;96.88;98814.22;5030072;28;20052;-73
2022/01/28 02:22:53;;;;;;;5.47;3.17;;;;;;;-3.55;96.57;98806.19;5029205;28;20449;-73
2022/01/28 02:25:21;;;;;;;4.65;2.92;;;;;;;-3.54;96.44;98807.00;5029617;28;20563;-73
2022/01/28 02:27:46;;;;;;;4.78;3.17;;;;;;;-3.53;96.67;98819.34;5029962;28;20520;-73
2022/01/28 02:30:13;;;;;;;4.10;2.67;;;;;;;-3.55;97.04;98814.22;5030349;28;20041;-73
2022/01/28 02:32:39;;;;;;;4.07;3.00;;;;;;;-3.54;96.60;98809.66;5030639;28;20041;-73
2022/01/28 02:35:05;;;;;;;4.32;3.20;;;;;;;-3.55;96.76;98819.59;5030066;28;20079;-73
2022/01/28 02:37:30;;;;;;;6.28;3.15;;;;;;;-3.55;96.82;98819.59;5030034;28;20044;-73
2022/01/28 02:39:56;;;;;;;4.03;2.00;;;;;;;-3.54;96.63;98815.84;5030418;28;20037;-73
2022/01/28 02:42:33;;;;;;;4.65;3.13;;;;;;;-3.52;96.72;98819.09;5030758;28;20091;-73
2022/01/28 02:45:02;;;;;;;4.70;2.90;;;;;;;-3.53;96.87;98817.47;5030519;28;20650;-73
2022/01/28 02:47:36;;;;;;;4.63;3.20;;;;;;;-3.54;96.63;98809.66;5030717;28;20381;-73
2022/01/28 02:50:03;;;;;;;3.03;2.45;;;;;;;-3.54;97.18;98805.13;5030709;28;20496;-73
2022/01/28 02:52:37;;;;;;;4.00;2.78;;;;;;;-3.52;96.84;98812.94;5030180;28;20061;-73
2022/01/28 02:55:08;;;;;;;4.38;2.83;;;;;;;-3.52;96.82;98820.97;5030095;28;20041;-73
2022/01/28 02:57:37;;;;;;;5.80;2.50;;;;;;;-3.52;97.20;98824.47;5030034;28;20034;-73
2022/01/28 03:00:05;;;;;;;3.80;2.63;;;;;;;-3.52;97.31;98826.34;5029059;28;20118;-73
2022/01/28 03:02:30;;;;;;;4.55;2.70;;;;;;;-3.51;97.12;98819.91;5030125;28;20171;-73
2022/01/28 03:07:47;;;;;;;3.65;2.55;;;;;;;-3.54;96.89;98818.53;5027984;28;20052;-73
2022/01/28 03:10:27;;;;;;;3.38;2.80;;;;;;;-3.51;96.77;98825.28;5034046;28;20033;-73
2022/01/28 03:15:51;;;;;;;3.40;2.30;;;;;;;-3.52;97.02;98824.47;5020876;28;20076;-73
2022/01/28 03:18:22;;;;;;;3.58;2.83;;;;;;;-3.52;96.93;98823.66;5027286;28;20571;-73
2022/01/28 03:23:20;;;;;;;3.65;2.50;;;;;;;-3.51;96.63;98811.88;5025013;28;20060;-72
2022/01/28 03:25:47;;;;;;;3.70;2.47;;;;;;;-3.50;96.94;98821.56;5007118;28;20037;-72
2022/01/28 03:28:14;;;;;;;4.22;2.38;;;;;;;-3.49;96.73;98817.81;5043643;28;20033;-73
2022/01/28 03:30:40;;;;;;;4.75;2.05;;;;;;;-3.47;96.74;98824.59;5025470;28;20092;-73
2022/01/28 03:33:05;;;;;;;3.60;2.28;;;;;;;-3.46;96.22;98818.19;5025644;28;20038;-73
2022/01/28 03:35:33;;;;;;;3.22;2.00;;;;;;;-3.47;96.71;98816.56;5025650;28;20029;-73
2022/01/28 03:38:01;;;;;;;3.65;2.80;;;;;;;-3.47;96.60;98818.41;5024792;28;20041;-73
2022/01/28 03:40:36;;;;;;;2.13;1.73;;;;;;;-3.48;96.74;98814.91;5024817;28;20042;-73
2022/01/28 03:43:06;;;;;;;3.83;2.60;;;;;;;-3.46;96.89;98820.88;5025817;28;20068;-73
2022/01/28 03:45:31;;;;;;;3.10;2.28;;;;;;;-3.46;96.51;98820.06;5028507;28;20045;-73
2022/01/28 03:47:57;;;;;;;4.43;2.58;;;;;;;-3.44;96.60;98826.00;5026374;28;20047;-72
2022/01/28 03:50:23;;;;;;;3.10;2.47;;;;;;;-3.43;96.68;98819.59;5024868;28;20033;-72
2022/01/28 03:52:48;;;;;;;2.53;2.13;;;;;;;-3.44;96.76;98826.81;5026836;28;20080;-72
2022/01/28 03:55:15;;;;;;;2.83;1.95;;;;;;;-3.42;96.83;98824.72;5029227;28;20034;-72
2022/01/28 03:57:41;;;;;;;4.07;2.10;;;;;;;-3.43;96.64;98833.00;5030780;28;20045;-71
2022/01/28 04:00:08;;;;;;;2.45;1.90;;;;;;;-3.45;96.89;98835.91;5032149;28;20037;-74
2022/01/28 04:02:37;;;;;;;2.92;2.25;;;;;;;-3.47;96.92;98846.06;5032883;28;20037;-74
2022/01/28 04:06:01;;;;;;;3.33;1.98;;;;;;;-3.47;96.46;98837.16;5033078;28;20124;-73
2022/01/28 04:13:23;;;;;;;5.43;2.50;;;;;;;-3.49;96.59;98842.75;5032584;28;20092;-73
2022/01/28 04:18:26;;;;;;;2.53;1.83;;;;;;;-3.50;96.74;98851.84;5032929;28;20041;-73
2022/01/28 04:20:51;;;;;;;6.50;2.85;;;;;;;-3.50;96.55;98848.34;5032755;28;20072;-72
2022/01/28 04:23:18;;;;;;;7.20;2.78;;;;;;;-3.49;96.83;98856.16;5032604;28;20033;-72
2022/01/28 04:25:44;;;;;;;5.72;2.28;;;;;;;-3.50;96.74;98853.72;5031807;28;20052;-76
2022/01/28 04:28:10;;;;;;;4.57;2.50;;;;;;;-3.50;97.06;98851.84;5031693;28;20171;-75
2022/01/28 04:30:36;;;;;;;5.22;2.78;;;;;;;-3.48;96.48;98857.81;5013629;28;20116;-72
2022/01/28 04:33:01;;;;;;;5.88;2.28;;;;;;;-3.49;96.91;98855.34;5031187;28;20072;-72
2022/01/28 04:35:27;;;;;;;4.38;2.45;;;;;;;-3.50;96.95;98857.22;5030328;28;20041;-73
2022/01/28 04:40:30;;;;;;;4.40;2.70;;;;;;;-3.47;97.10;98856.78;5031546;28;20037;-72
2022/01/28 04:43:10;;;;;;;4.35;2.65;;;;;;;-3.49;96.35;98848.13;5030827;28;20029;-72
2022/01/28 04:48:38;;;;;;;6.28;3.05;;;;;;;-3.47;96.52;98854.09;5032450;28;20044;-72
2022/01/28 05:06:53;;;;;;;6.25;3.55;;;;;;;-3.46;96.55;98866.44;5051946;28;20045;-72
2022/01/28 05:26:11;;;;;;;5.25;3.05;;;;;;;-3.47;96.21;98880.91;5012204;28;20068;-72
2022/01/28 05:28:35;;;;;;;2.80;2.28;;;;;;;-3.50;96.42;98884.03;5011915;28;20092;-72
2022/01/28 05:31:01;;;;;;;3.55;2.42;;;;;;;-3.51;96.41;98887.75;5012077;28;20037;-72
2022/01/28 05:33:27;;;;;;;4.90;2.58;;;;;;;-3.50;96.39;98881.34;5021433;28;20073;-72
2022/01/28 05:35:52;;;;;;;4.35;2.40;;;;;;;-3.49;96.32;98884.84;5031564;28;20056;-72
2022/01/28 05:38:18;;;;;;;3.45;1.73;;;;;;;-3.49;96.28;98896.38;5031478;28;20076;-73
2022/01/28 05:40:43;;;;;;;4.57;2.70;;;;;;;-3.49;96.55;98896.38;5031585;28;20088;-72
2022/01/28 05:43:09;;;;;;;5.07;2.47;;;;;;;-3.50;96.55;98892.06;5031654;28;20491;-72
2022/01/28 05:45:34;;;;;;;3.88;2.10;;;;;;;-3.51;96.60;98903.84;5031491;28;20571;-72
2022/01/28 05:48:00;;;;;;;4.05;1.58;;;;;;;-3.51;96.09;98906.53;5031400;28;20041;-72
2022/01/28 05:50:26;;;;;;;5.45;2.45;;;;;;;-3.52;96.25;98899.53;5031338;28;20099;-73
2022/01/28 05:52:51;;;;;;;5.28;2.80;;;;;;;-3.55;96.31;98909.91;5029731;28;20037;-73
2022/01/28 05:55:17;;;;;;;5.75;2.50;;;;;;;-3.55;95.73;98904.56;5031146;28;20507;-73
2022/01/28 05:57:43;;;;;;;4.65;2.13;;;;;;;-3.56;96.22;98903.75;5029225;28;20042;-72
2022/01/28 06:00:09;;;;;;;4.78;1.88;;;;;;;-3.57;96.29;98902.09;5030957;28;20041;-73
2022/01/28 06:02:42;;;;;;;4.45;2.45;;;;;;;-3.56;95.95;98908.28;5031362;28;20041;-73
2022/01/28 06:05:08;;;;;;;4.70;2.53;;;;;;;-3.58;96.39;98905.03;5031172;28;20091;-73
2022/01/28 06:07:33;;;;;;;4.50;2.40;;;;;;;-3.58;96.02;98919.25;5030060;28;20069;-72
2022/01/28 06:09:59;;;;;;;3.55;1.60;;;;;;;-3.58;96.14;98905.03;5031529;28;20563;-72
2022/01/28 06:12:25;;;;;;;5.47;2.88;;;;;;;-3.58;95.76;98908.53;5031354;28;20041;-72
2022/01/28 06:14:51;;;;;;;6.50;3.10;;;;;;;-3.59;96.48;98917.63;5019659;28;20040;-72
2022/01/28 06:17:16;;;;;;;4.95;2.58;;;;;;;-3.60;96.74;98918.66;5033101;28;20178;-72
2022/01/28 06:19:42;;;;;;;5.22;3.00;;;;;;;-3.62;95.91;98923.44;5049783;28;20036;-73
2022/01/28 06:22:08;;;;;;;4.47;2.50;;;;;;;-3.61;95.67;98922.38;5049931;28;20044;-72
2022/01/28 06:24:33;;;;;;;6.15;2.83;;;;;;;-3.60;96.36;98926.69;5049579;28;20447;-72
2022/01/28 06:26:59;;;;;;;5.80;3.30;;;;;;;-3.61;96.13;98927.75;5041089;28;20048;-72
2022/01/28 06:29:24;;;;;;;6.90;3.72;;;;;;;-3.62;96.18;98931.47;5030734;28;20045;-72
2022/01/28 06:31:50;;;;;;;5.00;2.38;;;;;;;-3.62;95.99;98938.72;5031002;28;20046;-72
2022/01/28 06:34:16;;;;;;;3.60;2.60;;;;;;;-3.63;96.17;98945.94;5030611;28;20033;-73
2022/01/28 06:36:42;;;;;;;4.93;2.80;;;;;;;-3.63;96.27;98948.63;5030704;28;20147;-72
2022/01/28 06:39:07;;;;;;;5.35;3.05;;;;;;;-3.65;96.59;98938.09;5030854;28;20116;-73
2022/01/28 06:41:33;;;;;;;5.70;2.85;;;;;;;-3.65;96.42;98953.34;5030534;28;20050;-72
2022/01/28 06:43:58;;;;;;;3.15;2.40;;;;;;;-3.65;96.11;98943.44;5030835;28;20504;-73
2022/01/28 06:46:24;;;;;;;5.40;2.67;;;;;;;-3.63;96.12;98955.84;5035638;28;20056;-73
2022/01/28 06:48:50;;;;;;;4.07;2.75;;;;;;;-3.63;96.30;98962.00;5050930;28;20045;-73
2022/01/28 06:51:16;;;;;;;4.15;2.67;;;;;;;-3.64;95.98;98965.75;5049116;28;20044;-72
2022/01/28 06:53:41;;;;;;;6.50;3.50;;;;;;;-3.64;96.06;98963.06;5049507;28;20037;-72
2022/01/28 06:56:07;;;;;;;5.63;3.05;;;;;;;-3.66;96.18;98957.09;5050435;28;20059;-72
2022/01/28 06:58:33;;;;;;;9.70;3.58;;;;;;;-3.67;95.96;98964.31;5050269;28;20210;-72
2022/01/28 07:00:58;;;;;;;5.70;2.40;;;;;;;-3.68;96.21;98976.09;5044171;28;20033;-73
2022/01/28 07:03:24;;;;;;;4.53;2.97;;;;;;;-3.69;96.24;98973.63;5029142;28;20064;-73
2022/01/28 07:05:49;;;;;;;5.30;3.05;;;;;;;-3.69;95.84;98968.28;5030535;28;20041;-72
2022/01/28 07:08:15;;;;;;;5.18;2.70;;;;;;;-3.69;95.78;98970.97;5030672;28;20037;-73
2022/01/28 07:10:41;;;;;;;5.80;3.30;;;;;;;-3.69;95.36;98982.50;5030447;28;20033;-73
2022/01/28 07:13:06;;;;;;;4.63;3.10;;;;;;;-3.70;95.23;98988.91;5030427;28;20065;-72
2022/01/28 07:15:32;;;;;;;6.18;2.83;;;;;;;-3.70;95.77;98983.53;5030382;28;20045;-73
2022/01/28 07:18:02;;;;;;;5.72;3.42;;;;;;;-3.68;95.51;98991.34;5030297;28;20045;-73
2022/01/28 07:20:29;;;;;;;4.88;2.85;;;;;;;-3.69;95.37;98998.56;5030177;28;20564;-73
2022/01/28 07:22:55;;;;;;;6.65;3.05;;;;;;;-3.67;95.30;98990.31;5030306;28;20128;-73
2022/01/28 07:25:20;;;;;;;7.15;3.10;;;;;;;-3.67;95.25;98998.34;5036159;28;20132;-73
2022/01/28 07:27:46;;;;;;;5.15;2.83;;;;;;;-3.65;95.77;99001.59;5052894;28;20167;-73
2022/01/28 07:30:13;;;;;;;4.93;2.30;;;;;;;-3.67;95.33;98996.47;5053888;28;20045;-73
2022/01/28 07:32:39;;;;;;;5.72;2.85;;;;;;;-3.67;95.03;99009.88;5053939;28;20448;-71
2022/01/28 07:35:05;;;;;;;6.82;3.60;;;;;;;-3.65;95.14;99017.69;5054233;28;20119;-73
2022/01/28 07:37:31;;;;;;;6.32;3.33;;;;;;;-3.65;95.54;99015.00;5053936;28;20076;-73
2022/01/28 07:39:56;;;;;;;5.00;3.70;;;;;;;-3.65;95.13;99010.47;5050482;28;20087;-73
2022/01/28 07:42:24;;;;;;;5.22;3.38;;;;;;;-3.65;95.40;99015.00;5032663;28;20080;-72
2022/01/28 07:44:49;;;;;;;9.35;3.78;;;;;;;-3.66;95.05;99018.75;5033856;28;20037;-72
2022/01/28 07:47:15;;;;;;;5.60;3.70;;;;;;;-3.67;95.45;99025.16;5033631;28;20044;-72
2022/01/28 07:49:41;;;;;;;6.63;4.20;;;;;;;-3.70;94.67;99026.44;5033812;28;20128;-72
2022/01/28 07:52:06;;;;;;;5.45;3.03;;;;;;;-3.70;95.50;99023.75;5034057;28;20063;-72
2022/01/28 07:54:32;;;;;;;6.70;3.72;;;;;;;-3.66;95.06;99034.81;5034639;28;20039;-72
2022/01/28 07:56:58;;;;;;;6.32;3.30;;;;;;;-3.68;95.14;99045.78;5031919;28;20049;-72
2022/01/28 07:59:24;;;;;;;5.00;2.80;;;;;;;-3.69;94.71;99032.59;5033271;28;20042;-73
2022/01/28 08:01:49;;;;;;;6.85;3.20;;;;;;;-3.67;95.42;99042.03;5032626;28;20041;-72
2022/01/28 08:04:15;;;;;;;7.53;3.67;;;;;;;-3.69;94.96;99043.31;5032205;28;20095;-73
2022/01/28 08:06:41;;;;;;;6.90;3.67;;;;;;;-3.70;95.79;99052.41;5033439;28;20144;-72
2022/01/28 08:09:07;;;;;;;5.38;3.20;;;;;;;-3.70;95.03;99057.78;5034547;28;20056;-72
2022/01/28 08:11:32;;;;;;;7.93;3.53;;;;;;;-3.70;95.22;99053.22;5033344;28;20037;-72
2022/01/28 08:13:58;;;;;;;10.43;3.55;;;;;;;-3.69;94.70;99059.41;5033162;28;20120;-72
2022/01/28 08:16:24;;;;;;;6.40;3.47;;;;;;;-3.67;95.35;99060.00;5042205;28;20087;-72
2022/01/28 08:18:49;;;;;;;5.85;3.15;;;;;;;-3.66;94.54;99059.75;5053372;28;20045;-72
2022/01/28 08:21:15;;;;;;;7.22;3.20;;;;;;;-3.65;95.33;99065.94;5037987;28;20057;-72
2022/01/28 08:23:41;;;;;;;4.43;2.90;;;;;;;-3.62;95.19;99067.38;5033493;28;20137;-73
2022/01/28 08:26:07;;;;;;;4.93;2.78;;;;;;;-3.62;95.30;99070.88;5033145;28;20144;-72
2022/01/28 08:28:33;;;;;;;5.35;2.90;;;;;;;-3.62;95.21;99081.59;5033050;28;20037;-72
2022/01/28 08:30:59;;;;;;;8.15;3.60;;;;;;;-3.58;95.43;99065.88;5036254;28;20029;-73
2022/01/28 08:33:25;;;;;;;4.65;3.33;;;;;;;-3.55;94.80;99076.13;5040459;28;20507;-73
2022/01/28 08:35:53;;;;;;;8.38;3.72;;;;;;;-3.52;95.01;99078.34;5020642;28;20045;-73
2022/01/28 08:38:28;;;;;;;5.70;3.60;;;;;;;-3.49;95.11;99084.06;5030406;28;20428;-74
2022/01/28 08:40:56;;;;;;;8.23;4.20;;;;;;;-3.47;95.08;99084.69;5033318;28;20041;-74
2022/01/28 08:43:22;;;;;;;8.18;4.07;;;;;;;-3.47;94.76;99087.38;5049797;28;20499;-73
2022/01/28 08:45:48;;;;;;;6.18;3.33;;;;;;;-3.45;94.64;99085.28;5048372;28;20056;-73
2022/01/28 08:48:13;;;;;;;7.93;3.28;;;;;;;-3.42;94.45;99084.00;5032593;28;20041;-73
2022/01/28 08:50:39;;;;;;;5.30;3.50;;;;;;;-3.38;94.81;99101.25;5033518;28;20130;-73
2022/01/28 08:53:05;;;;;;;7.55;3.90;;;;;;;-3.37;95.02;99089.47;5031684;28;20053;-72
2022/01/28 08:55:31;;;;;;;8.32;3.15;;;;;;;-3.35;94.52;99106.97;5031924;28;20102;-73
2022/01/28 08:57:57;;;;;;;7.00;3.58;;;;;;;-3.31;94.50;99110.00;5032651;28;20532;-72
2022/01/28 09:00:23;;;;;;;7.88;2.47;;;;;;;-3.32;94.39;99094.97;5032710;28;20041;-72
2022/01/28 09:02:49;;;;;;;5.55;3.10;;;;;;;-3.30;94.70;99100.91;5042678;28;20147;-73
2022/01/28 09:05:15;;;;;;;5.15;2.90;;;;;;;-3.28;94.18;99101.53;5052407;28;20503;-74
2022/01/28 09:07:41;;;;;;;7.00;3.67;;;;;;;-3.23;93.45;99103.50;5045975;28;20118;-72
2022/01/28 09:10:17;;;;;;;4.30;2.63;;;;;;;-3.19;94.05;99100.13;5028892;28;20408;-73
2022/01/28 09:12:59;;;;;;;3.83;2.45;;;;;;;-3.17;93.93;99095.34;5037705;28;20029;-74
2022/01/28 09:15:25;;;;;;;4.22;2.95;;;;;;;-3.14;93.83;99099.44;5048587;28;20065;-73
2022/01/28 09:17:51;;;;;;;5.53;2.97;;;;;;;-3.13;93.48;99099.22;5049357;28;20095;-74
2022/01/28 09:20:16;;;;;;;3.35;2.35;;;;;;;-3.08;93.42;99109.28;5035248;28;20076;-73
2022/01/28 09:22:42;;;;;;;8.63;4.65;;;;;;;-3.06;93.20;99117.91;5032417;28;20034;-73
2022/01/28 09:25:08;;;;;;;5.65;2.90;;;;;;;-3.07;92.87;99105.53;5063331;28;20559;-74
2022/01/28 09:27:33;;;;;;;4.95;2.65;;;;;;;-3.02;92.69;99111.03;5051158;28;20432;-72
2022/01/28 09:29:59;;;;;;;6.75;3.63;;;;;;;-2.94;92.84;99110.69;5035932;28;20059;-73
2022/01/28 09:32:25;;;;;;;6.15;3.05;;;;;;;-2.90;92.84;99114.56;5031839;28;20080;-73
2022/01/28 09:34:50;;;;;;;5.88;2.60;;;;;;;-2.87;92.74;99119.47;5031972;28;20183;-73
2022/01/28 09:37:16;;;;;;;5.72;2.65;;;;;;;-2.85;92.83;99124.59;5032420;28;20041;-74
2022/01/28 09:39:45;;;;;;;7.32;3.30;;;;;;;-2.85;92.80;99130.78;5030202;28;20124;-73
2022/01/28 09:42:16;;;;;;;;;;;;;;;-2.86;92.77;99123.78;5031998;28;20038;-73
2022/01/28 09:44:42;;;;;;;4.53;2.63;;;;;;;-2.86;92.29;99134.50;5074450;28;19921;-73
2022/01/28 09:47:10;;;;;;;7.13;2.97;;;;;;;-2.83;92.54;99135.91;5038030;28;20029;-73
2022/01/28 09:49:40;;;;;;;3.22;1.88;;;;;;;-2.81;92.26;99131.13;5028981;28;20044;-73
2022/01/28 09:52:08;;;;;;;3.42;2.22;;;;;;;-2.84;92.01;99132.41;5030362;28;20156;-74
2022/01/28 09:54:34;;;;;;;4.13;2.40;;;;;;;-2.84;92.29;99137.78;5014120;28;20037;-74
2022/01/28 09:57:01;;;;;;;3.50;1.45;;;;;;;-2.85;92.25;99138.00;5030739;28;20506;-73
2022/01/28 09:59:26;;;;;;;3.15;1.73;;;;;;;-2.86;91.97;99137.19;5030911;28;20045;-73
2022/01/28 10:01:54;;;;;;;3.50;1.70;;;;;;;-2.87;91.83;99138.25;5030206;28;20044;-73
2022/01/28 10:04:20;;;;;;;4.07;2.33;;;;;;;-2.84;92.20;99136.97;5030230;28;20499;-74
2022/01/28 10:06:46;;;;;;;4.00;2.40;;;;;;;-2.84;92.27;99145.81;5016261;28;20053;-74
2022/01/28 10:09:15;;;;;;;3.15;2.17;;;;;;;-2.88;92.33;99152.72;5010354;28;20034;-74
2022/01/28 10:11:44;;;;;;;4.47;1.90;;;;;;;-2.90;92.08;99154.81;5029688;28;20037;-75
2022/01/28 10:14:47;;;;;;;2.53;1.60;;;;;;;-2.93;92.12;99155.28;5031002;28;20110;-74
2022/01/28 10:17:03;;;;;;;3.97;2.25;;;;;;;-2.94;92.09;99159.00;5030016;28;20071;-73
2022/01/28 10:19:40;;;;;;;3.50;2.10;;;;;;;-2.95;91.93;99164.56;5029272;28;20033;-73
2022/01/28 10:22:17;;;;;;;4.88;2.75;;;;;;;-3.01;91.79;99166.31;5028919;28;20061;-73
2022/01/28 10:24:43;;;;;;;3.85;2.13;;;;;;;-3.07;91.83;99173.44;5060009;28;20034;-73
2022/01/28 10:27:09;;;;;;;3.42;1.73;;;;;;;-3.11;92.02;99176.81;5030642;28;20057;-73
2022/01/28 10:29:43;;;;;;;2.15;0.88;;;;;;;-3.14;92.05;99179.91;5030262;28;20492;-73
2022/01/28 10:32:08;;;;;;;4.90;1.30;;;;;;;-3.16;91.94;99180.16;5030138;28;20099;-74
2022/01/28 10:34:39;;;;;;;3.75;2.42;;;;;;;-3.19;92.02;99183.28;5050177;28;20034;-72
2022/01/28 10:37:19;;;;;;;4.65;2.47;;;;;;;-3.21;91.90;99180.03;5029477;28;20045;-73
2022/01/28 10:39:51;;;;;;;1.70;1.27;;;;;;;-3.22;92.43;99182.94;5031298;28;20048;-75
2022/01/28 10:42:34;;;;;;;3.50;1.73;;;;;;;-3.22;91.73;99191.00;5031024;28;20403;-74
2022/01/28 10:45:01;;;;;;;2.13;1.45;;;;;;;-3.22;92.03;99199.84;5032489;28;20483;-74
2022/01/28 10:47:31;;;;;;;4.38;2.80;;;;;;;-3.22;92.82;99191.00;5040954;28;20124;-74
2022/01/28 10:49:57;;;;;;;5.05;2.88;;;;;;;-3.20;92.72;99191.56;5033999;28;20412;-75
2022/01/28 10:52:33;;;;;;;3.10;1.40;;;;;;;-3.20;92.71;99203.13;5042605;28;20069;-75
2022/01/28 10:55:01;;;;;;;3.72;2.22;;;;;;;-3.17;92.79;99197.28;5045787;28;20523;-74
2022/01/28 10:57:29;;;;;;;4.25;2.92;;;;;;;-3.16;92.64;99206.16;5041519;28;20044;-75
2022/01/28 10:59:55;;;;;;;4.85;2.67;;;;;;;-3.17;92.84;99193.81;5035491;28;20544;-75
2022/01/28 11:02:25;;;;;;;4.75;2.50;;;;;;;-3.14;93.09;99196.84;5030860;28;20041;-75
2022/01/28 11:04:52;;;;;;;6.95;3.20;;;;;;;-3.12;92.69;99204.69;5040788;28;20061;-75
2022/01/28 11:07:18;;;;;;;3.58;2.15;;;;;;;-3.13;93.22;99197.66;5053483;28;20135;-77
2022/01/28 11:09:45;;;;;;;4.15;2.58;;;;;;;-3.12;93.23;99213.56;5046244;28;20547;-74
2022/01/28 11:12:10;;;;;;;3.30;1.77;;;;;;;-3.10;92.85;99222.19;5033491;28;20507;-74
2022/01/28 11:14:37;;;;;;;4.32;2.50;;;;;;;-3.09;93.07;99220.31;5039009;28;20048;-74
2022/01/28 11:17:02;;;;;;;4.70;2.17;;;;;;;-3.09;93.54;99221.16;5035113;28;20061;-74
2022/01/28 11:19:31;;;;;;;3.05;1.77;;;;;;;-3.08;92.82;99233.50;5052815;28;20057;-74
2022/01/28 11:22:08;;;;;;;4.82;2.75;;;;;;;-3.08;93.54;99235.38;5041551;28;20099;-74
2022/01/28 11:24:39;;;;;;;4.47;2.58;;;;;;;-3.05;93.46;99242.97;5052404;28;20135;-74
2022/01/28 11:27:14;;;;;;;5.78;2.08;;;;;;;-3.06;93.38;99242.16;5037608;28;20362;-74
2022/01/28 11:29:40;;;;;;;1.42;0.98;;;;;;;-3.06;93.53;99244.00;5031180;28;20496;-74
2022/01/28 11:32:17;;;;;;;3.15;2.58;;;;;;;-3.07;93.55;99253.13;5032471;28;20095;-76
2022/01/28 11:34:56;;;;;;;4.25;2.22;;;;;;;-3.06;93.32;99252.06;5037546;28;20045;-74
2022/01/28 11:37:30;;;;;;;4.80;3.00;;;;;;;-3.04;93.43;99248.09;5029816;28;20053;-75
2022/01/28 11:40:11;;;;;;;3.55;2.60;;;;;;;-3.00;93.31;99245.78;5018475;28;20033;-75
2022/01/28 11:42:36;;;;;;;4.25;2.38;;;;;;;-2.99;93.51;99260.00;5014353;28;20504;-74
2022/01/28 11:45:07;;;;;;;2.78;2.40;;;;;;;-2.99;93.50;99260.84;5017672;28;20043;-74
2022/01/28 11:47:34;;;;;;;3.80;2.55;;;;;;;-2.95;93.49;99261.19;5041418;28;20128;-74
2022/01/28 11:50:10;;;;;;;3.08;2.33;;;;;;;-2.90;93.44;99270.22;5047042;28;20041;-74
2022/01/28 11:52:43;;;;;;;4.18;2.40;;;;;;;-2.88;94.00;99273.50;5036854;28;20033;-74
2022/01/28 11:55:23;;;;;;;3.75;2.65;;;;;;;-2.85;93.90;99272.22;5045555;28;20049;-73
2022/01/28 11:57:57;;;;;;;;;;;;;;;-2.86;93.68;99276.75;5033600;28;20160;-74
2022/01/28 12:00:24;;;;;;;1.75;1.63;;;;;;;-2.85;93.65;99278.41;5043487;28;19921;-74
2022/01/28 12:02:52;;;;;;;4.22;2.28;;;;;;;-2.84;93.48;99285.41;5032514;28;20045;-74
2022/01/28 12:05:30;;;;;;;4.47;2.35;;;;;;;-2.82;93.55;99279.81;5031749;28;20041;-73
2022/01/28 12:08:04;;;;;;;4.35;2.38;;;;;;;-2.80;93.66;99288.44;5033425;28;20046;-74
2022/01/28 12:10:32;;;;;;;5.05;2.65;;;;;;;-2.81;93.52;99282.25;5032590;28;20423;-73
2022/01/28 12:15:27;;;;;;;1.90;1.33;;;;;;;-2.82;93.79;99296.72;5031977;28;20041;-74
2022/01/28 12:18:04;;;;;;;3.92;2.30;;;;;;;-2.86;93.27;99300.91;5032017;28;20044;-73
2022/01/28 12:20:36;;;;;;;2.90;1.90;;;;;;;-2.86;93.52;99306.28;5036460;28;20041;-73
2022/01/28 12:23:10;;;;;;;5.30;2.42;;;;;;;-2.88;93.83;99308.38;5032104;28;20045;-74
2022/01/28 12:25:39;;;;;;;3.67;2.28;;;;;;;-2.85;93.46;99312.47;5033113;28;20033;-74
2022/01/28 12:28:23;;;;;;;2.97;2.03;;;;;;;-2.84;93.30;99324.84;5037034;28;20503;-74
2022/01/28 12:30:49;;;;;;;0.60;0.57;;;;;;;-2.86;93.25;99332.31;5032346;28;20045;-73
2022/01/28 12:33:21;;;;;;;2.08;1.00;;;;;;;-2.85;93.87;99323.22;5031729;28;20045;-75
2022/01/28 12:35:50;;;;;;;2.08;1.58;;;;;;;-2.89;93.04;99316.66;5032817;28;20038;-75
2022/01/28 12:38:20;;;;;;;1.25;0.95;;;;;;;-2.90;93.56;99329.28;5031236;28;20530;-75
2022/01/28 12:40:49;;;;;;;2.20;1.08;;;;;;;-2.90;93.17;99325.75;5015271;28;20060;-75
2022/01/28 12:43:20;;;;;;;4.50;2.28;;;;;;;-2.89;93.27;99330.09;5032120;28;20076;-75
2022/01/28 12:45:56;;;;;;;1.00;0.75;;;;;;;-2.88;92.83;99329.03;5031493;28;20037;-75
2022/01/28 12:48:21;;;;;;;4.28;2.42;;;;;;;-2.87;93.29;99331.50;5031739;28;20049;-75
2022/01/28 12:50:51;;;;;;;2.97;1.83;;;;;;;-2.86;93.00;99343.03;5031844;28;20052;-75
2022/01/28 12:53:31;;;;;;;5.07;2.03;;;;;;;-2.86;93.12;99346.56;5032924;28;20122;-75
2022/01/28 12:55:59;;;;;;;1.77;1.13;;;;;;;-2.86;93.26;99348.41;5032533;28;20043;-75
2022/01/28 12:58:35;;;;;;;4.82;2.22;;;;;;;-2.84;93.24;99347.13;5030069;28;20037;-75
2022/01/28 13:01:06;;;;;;;6.05;2.53;;;;;;;-2.84;92.90;99363.25;5030184;28;20136;-75
2022/01/28 13:03:37;;;;;;;4.78;2.45;;;;;;;-2.85;93.25;99360.78;5031114;28;20053;-75
2022/01/28 13:06:39;;;;;;;4.32;2.47;;;;;;;-2.86;92.96;99383.31;5031574;28;20042;-75
2022/01/28 13:09:12;;;;;;;1.10;0.90;;;;;;;-2.91;92.67;99372.44;5032405;28;20048;-75
2022/01/28 13:11:45;;;;;;;1.45;1.35;;;;;;;-2.94;92.04;99384.44;5014602;28;20048;-75
2022/01/28 13:14:12;;;;;;;2.22;1.27;;;;;;;-2.97;91.67;99387.56;5032237;28;20037;-75